Time;durP1;ratioP1;P1;durP2;ratioP2;P2;SDS_P1;SDS_P2;PMS_P1;PMS_P2;Temp;Humidity;BMP_temperature;BMP_pressure;BME280_temperature;BME280_humidity;BME280_pressure;Samples;Min_cycle;Max_cycle;Signal;HPM_P1;HPM_P2
2023/03/19 00:00:53;;;;;;;;;;;;;;;;;;4247997;27;19915;-41
2023/03/19 00:02:55;;;;;;;;;;;;;;;;;;4238341;27;19915;-42
2023/03/19 00:04:56;;;;;;;;;;;;;;;;;;4234617;27;19960;-42
2023/03/19 00:06:57;;;;;;;;;;;;;;;;;;4234135;27;19977;-41
2023/03/19 00:08:58;;;;;;;;;;;;;;;;;;4217280;28;19969;-41
2023/03/19 00:10:59;;;;;;;;;;;;;;;;;;4239133;27;19919;-42
2023/03/19 00:13:00;;;;;;;;;;;;;;;;;;4237960;27;19965;-41
2023/03/19 00:15:01;;;;;;;;;;;;;;;;;;4230846;27;20435;-42
2023/03/19 00:17:02;;;;;;;;;;;;;;;;;;4230573;27;19915;-41
2023/03/19 00:19:03;;;;;;;;;;;;;;;;;;4234613;27;19916;-40
2023/03/19 00:21:05;;;;;;;;;;;;;;;;;;4232858;27;20444;-42
2023/03/19 00:23:06;;;;;;;;;;;;;;;;;;4233661;27;20060;-41
2023/03/19 00:25:07;;;;;;;;;;;;;;;;;;4235074;27;19915;-42
2023/03/19 00:27:08;;;;;;;;;;;;;;;;;;4235874;27;19915;-41
2023/03/19 00:29:09;;;;;;;;;;;;;;;;;;4239812;27;20418;-41
2023/03/19 00:31:11;;;;;;;;;;;;;;;;;;4224721;28;20003;-41
2023/03/19 00:33:11;;;;;;;;;;;;;;;;;;4235439;27;20056;-41
2023/03/19 00:35:13;;;;;;;;;;;;;;;;;;4239152;27;19985;-41
2023/03/19 00:37:16;;;;;;;;;;;;;;;;;;4223976;28;20392;-40
2023/03/19 00:39:17;;;;;;;;;;;;;;;;;;4238461;27;19991;-41
2023/03/19 00:41:19;;;;;;;;;;;;;;;;;;4234289;27;19938;-41
2023/03/19 00:43:20;;;;;;;;;;;;;;;;;;4234580;27;20003;-41
2023/03/19 00:45:21;;;;;;;;;;;;;;;;;;4230001;27;19922;-41
2023/03/19 00:47:23;;;;;;;;;;;;;;;;;;4229217;27;19919;-41
2023/03/19 00:49:24;;;;;;;;;;;;;;;;;;4239910;27;20319;-41
2023/03/19 00:51:26;;;;;;;;;;;;;;;;;;4215798;28;19927;-39
2023/03/19 00:53:27;;;;;;;;;;;;;;;;;;4230050;28;19961;-42
2023/03/19 00:55:29;;;;;;;;;;;;;;;;;;4228745;28;19927;-42
2023/03/19 00:57:29;;;;;;;;;;;;;;;;;;4233642;27;19994;-42
2023/03/19 00:59:30;;;;;;;;;;;;;;;;;;4216773;28;19920;-43
2023/03/19 01:01:31;;;;;;;;;;;;;;;;;;4233464;27;19960;-44
2023/03/19 01:03:33;;;;;;;;;;;;;;;;;;4234447;27;19916;-43
2023/03/19 01:05:34;;;;;;;;;;;;;;;;;;4241359;27;20444;-43
2023/03/19 01:07:35;;;;;;;;;;;;;;;;;;4246943;27;19919;-43
2023/03/19 01:09:36;;;;;;;;;;;;;;;;;;4246034;27;20366;-45
2023/03/19 01:11:37;;;;;;;;;;;;;;;;;;4232555;27;19915;-42
2023/03/19 01:13:39;;;;;;;;;;;;;;;;;;4222821;28;20456;-41
2023/03/19 01:15:40;;;;;;;;;;;;;;;;;;4215224;28;19920;-40
2023/03/19 01:17:41;;;;;;;;;;;;;;;;;;4214096;28;19920;-41
2023/03/19 01:19:42;;;;;;;;;;;;;;;;;;4229536;27;20229;-41
2023/03/19 01:21:45;;;;;;;;;;;;;;;;;;4209276;28;20402;-41
2023/03/19 01:23:47;;;;;;;;;;;;;;;;;;4208046;28;19920;-41
2023/03/19 01:25:50;;;;;;;;;;;;;;;;;;4209088;28;19927;-43
2023/03/19 01:27:51;;;;;;;;;;;;;;;;;;4240113;27;19954;-39
2023/03/19 01:29:52;;;;;;;;;;;;;;;;;;4231222;27;20377;-41
2023/03/19 01:32:11;;;;;;;;;;;;;;;;;;4220987;28;19919;-41
2023/03/19 01:34:31;;;;;;;;;;;;;;;;;;4217277;28;19924;-42
2023/03/19 01:36:41;;;;;;;;;;;;;;;;;;4230576;27;19923;-40
2023/03/19 01:38:43;;;;;;;;;;;;;;;;;;4211551;28;19966;-41
2023/03/19 01:40:49;;;;;;;;;;;;;;;;;;4213119;28;20341;-43
2023/03/19 01:42:50;;;;;;;;;;;;;;;;;;4244909;27;20259;-43
2023/03/19 01:45:18;;;;;;;;;;;;;;;;;;4214923;28;19916;-44
2023/03/19 01:47:39;;;;;;;;;;;;;;;;;;4190832;28;19920;-39
2023/03/19 01:49:44;;;;;;;;;;;;;;;;;;4221079;28;19916;-41
2023/03/19 01:51:52;;;;;;;;;;;;;;;;;;4228051;28;19964;-41
2023/03/19 01:54:11;;;;;;;;;;;;;;;;;;4217419;28;19927;-41
2023/03/19 01:56:22;;;;;;;;;;;;;;;;;;4219574;28;19930;-43
2023/03/19 01:58:41;;;;;;;;;;;;;;;;;;4212889;28;19950;-44
2023/03/19 02:00:52;;;;;;;;;;;;;;;;;;4229384;28;19923;-43
2023/03/19 02:02:53;;;;;;;;;;;;;;;;;;4218638;28;19969;-44
2023/03/19 02:05:14;;;;;;;;;;;;;;;;;;4226255;28;19915;-39
2023/03/19 02:07:15;;;;;;;;;;;;;;;;;;4227641;28;20027;-41
2023/03/19 02:09:17;;;;;;;;;;;;;;;;;;4207504;28;19920;-44
2023/03/19 02:11:18;;;;;;;;;;;;;;;;;;4227003;28;20387;-43
2023/03/19 02:13:19;;;;;;;;;;;;;;;;;;4227324;28;20003;-43
2023/03/19 02:15:20;;;;;;;;;;;;;;;;;;4213163;28;20046;-43
2023/03/19 02:17:21;;;;;;;;;;;;;;;;;;4220926;28;19924;-42
2023/03/19 02:19:22;;;;;;;;;;;;;;;;;;4219160;28;19966;-41
2023/03/19 02:21:23;;;;;;;;;;;;;;;;;;4214730;28;19916;-41
2023/03/19 02:23:26;;;;;;;;;;;;;;;;;;4217436;28;19916;-42
2023/03/19 02:25:30;;;;;;;;;;;;;;;;;;4244053;28;19920;-42
2023/03/19 02:27:32;;;;;;;;;;;;;;;;;;4233483;28;19919;-41
2023/03/19 02:29:33;;;;;;;;;;;;;;;;;;4244808;28;19976;-40
2023/03/19 02:31:34;;;;;;;;;;;;;;;;;;4227230;28;19965;-41
2023/03/19 02:33:35;;;;;;;;;;;;;;;;;;4213516;28;20393;-41
2023/03/19 02:35:37;;;;;;;;;;;;;;;;;;4227663;28;20594;-41
2023/03/19 02:37:38;;;;;;;;;;;;;;;;;;4244811;27;19972;-41
2023/03/19 02:39:39;;;;;;;;;;;;;;;;;;4232347;28;20383;-42
2023/03/19 02:41:41;;;;;;;;;;;;;;;;;;4231894;27;19923;-40
2023/03/19 02:43:42;;;;;;;;;;;;;;;;;;4231017;28;19945;-40
2023/03/19 02:45:43;;;;;;;;;;;;;;;;;;4247926;27;20314;-42
2023/03/19 02:47:44;;;;;;;;;;;;;;;;;;4230251;28;19985;-39
2023/03/19 02:49:46;;;;;;;;;;;;;;;;;;4219023;28;20393;-44
2023/03/19 02:51:47;;;;;;;;;;;;;;;;;;4229142;28;19969;-40
2023/03/19 02:53:48;;;;;;;;;;;;;;;;;;4236375;27;19922;-41
2023/03/19 02:55:49;;;;;;;;;;;;;;;;;;4229178;28;19927;-41
2023/03/19 02:57:51;;;;;;;;;;;;;;;;;;4225794;28;20383;-42
2023/03/19 02:59:52;;;;;;;;;;;;;;;;;;4231763;28;19916;-42
2023/03/19 03:01:53;;;;;;;;;;;;;;;;;;4225828;28;19916;-42
2023/03/19 03:03:54;;;;;;;;;;;;;;;;;;4221813;28;19922;-42
2023/03/19 03:05:56;;;;;;;;;;;;;;;;;;4220822;28;19920;-43
2023/03/19 03:07:57;;;;;;;;;;;;;;;;;;4227701;28;19916;-41
2023/03/19 03:09:59;;;;;;;;;;;;;;;;;;4227085;28;20425;-42
2023/03/19 03:12:00;;;;;;;;;;;;;;;;;;4220286;28;20322;-42
2023/03/19 03:14:01;;;;;;;;;;;;;;;;;;4215255;28;19920;-43
2023/03/19 03:16:03;;;;;;;;;;;;;;;;;;4228231;28;20232;-42
2023/03/19 03:18:04;;;;;;;;;;;;;;;;;;4217374;28;19920;-42
2023/03/19 03:20:05;;;;;;;;;;;;;;;;;;4231860;28;19922;-41
2023/03/19 03:22:06;;;;;;;;;;;;;;;;;;4246736;27;19916;-41
2023/03/19 03:24:08;;;;;;;;;;;;;;;;;;4230228;28;20318;-40
2023/03/19 03:26:10;;;;;;;;;;;;;;;;;;4240987;27;19930;-41
2023/03/19 03:28:11;;;;;;;;;;;;;;;;;;4230372;28;19944;-41
2023/03/19 03:30:12;;;;;;;;;;;;;;;;;;4234198;27;19992;-40
2023/03/19 03:32:13;;;;;;;;;;;;;;;;;;4243038;27;19915;-40
2023/03/19 03:34:15;;;;;;;;;;;;;;;;;;4239572;27;19920;-40
2023/03/19 03:36:16;;;;;;;;;;;;;;;;;;4236923;27;19916;-39
2023/03/19 03:38:17;;;;;;;;;;;;;;;;;;4245613;27;20260;-42
2023/03/19 03:40:19;;;;;;;;;;;;;;;;;;4248629;27;19921;-41
2023/03/19 03:42:20;;;;;;;;;;;;;;;;;;4229874;28;19915;-42
2023/03/19 03:44:21;;;;;;;;;;;;;;;;;;4248341;27;19919;-44
2023/03/19 03:46:23;;;;;;;;;;;;;;;;;;4215976;28;19950;-41
2023/03/19 03:48:26;;;;;;;;;;;;;;;;;;4229790;27;19953;-42
2023/03/19 03:50:27;;;;;;;;;;;;;;;;;;4205687;28;19924;-42
2023/03/19 03:52:30;;;;;;;;;;;;;;;;;;4239297;27;19949;-43
2023/03/19 03:54:31;;;;;;;;;;;;;;;;;;4247764;27;19980;-43
2023/03/19 03:56:32;;;;;;;;;;;;;;;;;;4215658;28;19963;-41
2023/03/19 03:58:34;;;;;;;;;;;;;;;;;;4229802;28;20282;-42
2023/03/19 04:00:35;;;;;;;;;;;;;;;;;;4229837;28;19915;-40
2023/03/19 04:02:36;;;;;;;;;;;;;;;;;;4229165;28;20455;-41
2023/03/19 04:04:37;;;;;;;;;;;;;;;;;;4247664;27;19991;-41
2023/03/19 04:06:38;;;;;;;;;;;;;;;;;;4229335;28;20084;-42
2023/03/19 04:09:00;;;;;;;;;;;;;;;;;;4208933;27;19938;-40
2023/03/19 04:11:01;;;;;;;;;;;;;;;;;;4226120;28;20464;-41
2023/03/19 04:13:02;;;;;;;;;;;;;;;;;;4228883;28;19945;-40
2023/03/19 04:15:05;;;;;;;;;;;;;;;;;;4229152;28;20337;-42
2023/03/19 04:17:06;;;;;;;;;;;;;;;;;;4228556;28;20001;-41
2023/03/19 04:19:07;;;;;;;;;;;;;;;;;;4229593;28;20332;-41
2023/03/19 04:21:09;;;;;;;;;;;;;;;;;;4228940;28;19957;-41
2023/03/19 04:23:10;;;;;;;;;;;;;;;;;;4224354;28;19916;-43
2023/03/19 04:25:11;;;;;;;;;;;;;;;;;;4212348;28;20411;-42
2023/03/19 04:27:13;;;;;;;;;;;;;;;;;;4212436;28;19919;-41
2023/03/19 04:29:15;;;;;;;;;;;;;;;;;;4226886;28;20363;-40
2023/03/19 04:31:17;;;;;;;;;;;;;;;;;;4211829;28;19916;-40
2023/03/19 04:33:19;;;;;;;;;;;;;;;;;;4203562;28;19931;-41
2023/03/19 04:35:20;;;;;;;;;;;;;;;;;;4240870;27;20112;-40
2023/03/19 04:37:21;;;;;;;;;;;;;;;;;;4233181;27;19966;-43
2023/03/19 04:39:24;;;;;;;;;;;;;;;;;;4215725;28;19919;-41
2023/03/19 04:41:26;;;;;;;;;;;;;;;;;;4219144;28;19915;-42
2023/03/19 04:43:38;;;;;;;;;;;;;;;;;;4217556;28;19916;-42
2023/03/19 04:45:39;;;;;;;;;;;;;;;;;;4242895;27;19919;-41
2023/03/19 04:47:41;;;;;;;;;;;;;;;;;;4228381;27;20388;-40
2023/03/19 04:49:42;;;;;;;;;;;;;;;;;;4219560;28;19916;-39
2023/03/19 04:51:43;;;;;;;;;;;;;;;;;;4236746;27;19915;-41
2023/03/19 04:53:44;;;;;;;;;;;;;;;;;;4241949;27;20389;-40
2023/03/19 04:55:47;;;;;;;;;;;;;;;;;;4212718;28;19949;-41
2023/03/19 04:57:50;;;;;;;;;;;;;;;;;;4211930;28;19935;-41
2023/03/19 04:59:54;;;;;;;;;;;;;;;;;;4211872;28;20301;-41
2023/03/19 05:01:55;;;;;;;;;;;;;;;;;;4241486;27;19915;-41
2023/03/19 05:03:58;;;;;;;;;;;;;;;;;;4228263;28;20386;-40
2023/03/19 05:05:59;;;;;;;;;;;;;;;;;;4228687;28;19927;-43
2023/03/19 05:08:01;;;;;;;;;;;;;;;;;;4211751;28;20398;-43
2023/03/19 05:10:02;;;;;;;;;;;;;;;;;;4228820;28;19920;-41
2023/03/19 05:12:03;;;;;;;;;;;;;;;;;;4232283;27;19915;-42
2023/03/19 05:14:10;;;;;;;;;;;;;;;;;;4245449;27;19920;-41
2023/03/19 05:16:34;;;;;;;;;;;;;;;;;;4215865;28;19916;-42
2023/03/19 05:18:35;;;;;;;;;;;;;;;;;;4212594;28;19916;-40
2023/03/19 05:20:37;;;;;;;;;;;;;;;;;;4211696;28;20389;-42
2023/03/19 05:22:42;;;;;;;;;;;;;;;;;;4238287;27;19941;-41
2023/03/19 05:24:43;;;;;;;;;;;;;;;;;;4228399;28;20305;-40
2023/03/19 05:26:45;;;;;;;;;;;;;;;;;;4244896;27;20365;-42
2023/03/19 05:28:52;;;;;;;;;;;;;;;;;;4246582;27;20319;-41
2023/03/19 05:30:59;;;;;;;;;;;;;;;;;;4228519;28;19920;-41
2023/03/19 05:33:08;;;;;;;;;;;;;;;;;;4224665;28;19922;-39
2023/03/19 05:35:16;;;;;;;;;;;;;;;;;;4198259;28;20407;-41
2023/03/19 05:37:17;;;;;;;;;;;;;;;;;;4244952;27;19919;-41
2023/03/19 05:39:23;;;;;;;;;;;;;;;;;;4228534;28;19916;-39
2023/03/19 05:41:24;;;;;;;;;;;;;;;;;;4245740;27;19915;-40
2023/03/19 05:43:34;;;;;;;;;;;;;;;;;;4211532;28;20014;-42
2023/03/19 05:45:40;;;;;;;;;;;;;;;;;;4219693;28;19988;-39
2023/03/19 05:47:49;;;;;;;;;;;;;;;;;;4227549;28;19986;-41
2023/03/19 05:49:51;;;;;;;;;;;;;;;;;;4213870;28;19919;-42
2023/03/19 05:51:53;;;;;;;;;;;;;;;;;;4228010;28;20018;-41
2023/03/19 05:53:54;;;;;;;;;;;;;;;;;;4236134;28;19915;-41
2023/03/19 05:56:21;;;;;;;;;;;;;;;;;;4227487;28;19927;-41
2023/03/19 05:58:45;;;;;;;;;;;;;;;;;;4245275;27;19916;-40
2023/03/19 06:00:49;;;;;;;;;;;;;;;;;;4228069;28;20271;-42
2023/03/19 06:02:51;;;;;;;;;;;;;;;;;;4242105;28;19923;-41
2023/03/19 06:05:11;;;;;;;;;;;;;;;;;;4236331;28;19919;-35
2023/03/19 06:07:12;;;;;;;;;;;;;;;;;;4234704;28;19922;-35
2023/03/19 06:09:14;;;;;;;;;;;;;;;;;;4224239;28;19943;-35
2023/03/19 06:11:17;;;;;;;;;;;;;;;;;;4242782;28;20009;-34
2023/03/19 06:13:23;;;;;;;;;;;;;;;;;;4219433;28;19922;-35
2023/03/19 06:15:32;;;;;;;;;;;;;;;;;;4231356;28;20387;-35
2023/03/19 06:17:46;;;;;;;;;;;;;;;;;;4247574;27;19923;-34
2023/03/19 06:19:50;;;;;;;;;;;;;;;;;;4231329;28;19951;-35
2023/03/19 06:21:51;;;;;;;;;;;;;;;;;;4231175;28;19922;-34
2023/03/19 06:23:52;;;;;;;;;;;;;;;;;;4237417;27;19915;-35
2023/03/19 06:25:59;;;;;;;;;;;;;;;;;;4246789;27;19915;-34
2023/03/19 06:28:04;;;;;;;;;;;;;;;;;;4225210;28;20069;-35
2023/03/19 06:30:11;;;;;;;;;;;;;;;;;;4223969;28;20306;-35
2023/03/19 06:32:12;;;;;;;;;;;;;;;;;;4230671;28;19943;-35
2023/03/19 06:34:16;;;;;;;;;;;;;;;;;;4233720;27;20236;-35
2023/03/19 06:36:18;;;;;;;;;;;;;;;;;;4225295;28;19919;-35
2023/03/19 06:38:20;;;;;;;;;;;;;;;;;;4206904;28;19931;-35
2023/03/19 06:40:21;;;;;;;;;;;;;;;;;;4236900;27;19926;-35
2023/03/19 06:42:23;;;;;;;;;;;;;;;;;;4247628;27;19919;-35
2023/03/19 06:44:24;;;;;;;;;;;;;;;;;;4248234;27;19922;-34
2023/03/19 06:46:25;;;;;;;;;;;;;;;;;;4240489;27;20347;-35
2023/03/19 06:48:26;;;;;;;;;;;;;;;;;;4232351;28;20065;-35
2023/03/19 06:50:27;;;;;;;;;;;;;;;;;;4246441;27;19915;-35
2023/03/19 06:52:28;;;;;;;;;;;;;;;;;;4230633;28;19916;-35
2023/03/19 06:54:29;;;;;;;;;;;;;;;;;;4245379;27;19919;-35
2023/03/19 06:56:30;;;;;;;;;;;;;;;;;;4240411;27;19988;-35
2023/03/19 06:58:31;;;;;;;;;;;;;;;;;;4245428;27;19926;-35
2023/03/19 07:00:33;;;;;;;;;;;;;;;;;;4213509;28;19936;-35
2023/03/19 07:02:35;;;;;;;;;;;;;;;;;;4231442;28;20377;-39
2023/03/19 07:04:36;;;;;;;;;;;;;;;;;;4231828;28;20395;-35
2023/03/19 07:06:37;;;;;;;;;;;;;;;;;;4244623;27;19960;-35
2023/03/19 07:08:39;;;;;;;;;;;;;;;;;;4248809;27;20266;-35
2023/03/19 07:10:41;;;;;;;;;;;;;;;;;;4225811;28;19924;-35
2023/03/19 07:12:42;;;;;;;;;;;;;;;;;;4239937;27;20324;-35
2023/03/19 07:14:44;;;;;;;;;;;;;;;;;;4236992;27;20318;-35
2023/03/19 07:16:45;;;;;;;;;;;;;;;;;;4245779;27;19995;-34
2023/03/19 07:18:46;;;;;;;;;;;;;;;;;;4248929;27;19930;-35
2023/03/19 07:20:48;;;;;;;;;;;;;;;;;;4241208;27;19924;-35
2023/03/19 07:22:49;;;;;;;;;;;;;;;;;;4242185;27;20007;-35
2023/03/19 07:24:51;;;;;;;;;;;;;;;;;;4248465;27;20248;-35
2023/03/19 07:26:52;;;;;;;;;;;;;;;;;;4231216;28;19931;-35
2023/03/19 07:28:53;;;;;;;;;;;;;;;;;;4223927;28;19916;-35
2023/03/19 07:30:55;;;;;;;;;;;;;;;;;;4231565;27;19961;-35
2023/03/19 07:32:56;;;;;;;;;;;;;;;;;;4244088;27;19967;-34
2023/03/19 07:34:57;;;;;;;;;;;;;;;;;;4247982;27;19919;-34
2023/03/19 07:36:58;;;;;;;;;;;;;;;;;;4242437;27;20003;-34
2023/03/19 07:38:59;;;;;;;;;;;;;;;;;;4239859;27;19915;-35
2023/03/19 07:41:00;;;;;;;;;;;;;;;;;;4236572;27;19923;-34
2023/03/19 07:43:19;;;;;;;;;;;;;;;;;;4235187;27;19979;-34
2023/03/19 07:45:20;;;;;;;;;;;;;;;;;;4241292;27;20018;-35
2023/03/19 07:47:21;;;;;;;;;;;;;;;;;;4219430;28;19920;-35
2023/03/19 07:49:22;;;;;;;;;;;;;;;;;;4231210;28;19935;-35
2023/03/19 07:51:23;;;;;;;;;;;;;;;;;;4247186;27;20418;-35
2023/03/19 07:53:24;;;;;;;;;;;;;;;;;;4243576;27;20424;-34
2023/03/19 07:55:26;;;;;;;;;;;;;;;;;;4240350;27;19972;-35
2023/03/19 07:57:27;;;;;;;;;;;;;;;;;;4243759;27;19926;-34
2023/03/19 07:59:28;;;;;;;;;;;;;;;;;;4247694;27;19926;-35
2023/03/19 08:01:29;;;;;;;;;;;;;;;;;;4247602;27;20382;-35
2023/03/19 08:03:32;;;;;;;;;;;;;;;;;;4247839;27;19926;-35
2023/03/19 08:05:33;;;;;;;;;;;;;;;;;;4247737;27;19968;-35
2023/03/19 08:07:34;;;;;;;;;;;;;;;;;;4233524;27;19960;-35
2023/03/19 08:09:36;;;;;;;;;;;;;;;;;;4244517;27;19973;-35
2023/03/19 08:11:37;;;;;;;;;;;;;;;;;;4237692;27;20377;-35
2023/03/19 08:13:38;;;;;;;;;;;;;;;;;;4247766;27;19915;-35
2023/03/19 08:15:39;;;;;;;;;;;;;;;;;;4234348;27;19919;-35
2023/03/19 08:17:41;;;;;;;;;;;;;;;;;;4243970;27;19991;-35
2023/03/19 08:19:42;;;;;;;;;;;;;;;;;;4236824;27;19915;-35
2023/03/19 08:21:43;;;;;;;;;;;;;;;;;;4247668;27;19965;-35
2023/03/19 08:23:45;;;;;;;;;;;;;;;;;;4248092;27;19934;-34
2023/03/19 08:25:45;;;;;;;;;;;;;;;;;;4231514;27;20537;-35
2023/03/19 08:27:47;;;;;;;;;;;;;;;;;;4235351;27;20267;-35
2023/03/19 08:29:48;;;;;;;;;;;;;;;;;;4239514;27;19916;-32
2023/03/19 08:31:49;;;;;;;;;;;;;;;;;;4241568;27;19915;-32
2023/03/19 08:33:50;;;;;;;;;;;;;;;;;;4247420;27;19915;-33
2023/03/19 08:35:52;;;;;;;;;;;;;;;;;;4228689;28;19916;-33
2023/03/19 08:37:53;;;;;;;;;;;;;;;;;;4240335;27;19927;-33
2023/03/19 08:39:54;;;;;;;;;;;;;;;;;;4240488;27;19949;-33
2023/03/19 08:41:56;;;;;;;;;;;;;;;;;;4233713;27;19920;-35
2023/03/19 08:43:57;;;;;;;;;;;;;;;;;;4247098;27;19915;-35
2023/03/19 08:45:58;;;;;;;;;;;;;;;;;;4247217;27;19920;-35
2023/03/19 08:47:59;;;;;;;;;;;;;;;;;;4246634;27;19980;-35
2023/03/19 08:50:00;;;;;;;;;;;;;;;;;;4247274;27;20016;-35
2023/03/19 08:52:01;;;;;;;;;;;;;;;;;;4246757;27;19976;-35
2023/03/19 08:54:03;;;;;;;;;;;;;;;;;;4228425;28;19916;-35
2023/03/19 08:56:04;;;;;;;;;;;;;;;;;;4242177;27;20397;-35
2023/03/19 08:58:05;;;;;;;;;;;;;;;;;;4230140;28;20316;-32
2023/03/19 09:00:06;;;;;;;;;;;;;;;;;;4226051;28;19965;-34
2023/03/19 09:02:07;;;;;;;;;;;;;;;;;;4242892;27;20382;-35
2023/03/19 09:04:08;;;;;;;;;;;;;;;;;;4236954;27;19915;-35
2023/03/19 09:06:09;;;;;;;;;;;;;;;;;;4236835;27;19920;-34
2023/03/19 09:08:10;;;;;;;;;;;;;;;;;;4243102;27;20006;-35
2023/03/19 09:10:11;;;;;;;;;;;;;;;;;;4246398;27;19980;-35
2023/03/19 09:12:13;;;;;;;;;;;;;;;;;;4246874;27;19956;-35
2023/03/19 09:14:15;;;;;;;;;;;;;;;;;;4246778;27;19967;-33
2023/03/19 09:16:16;;;;;;;;;;;;;;;;;;4246571;27;19968;-37
2023/03/19 09:18:19;;;;;;;;;;;;;;;;;;4246532;27;19923;-38
2023/03/19 09:20:20;;;;;;;;;;;;;;;;;;4246982;27;19920;-35
2023/03/19 09:22:21;;;;;;;;;;;;;;;;;;4246628;27;20350;-33
2023/03/19 09:24:23;;;;;;;;;;;;;;;;;;4246722;27;19979;-34
2023/03/19 09:26:24;;;;;;;;;;;;;;;;;;4246022;27;20085;-38
2023/03/19 09:28:25;;;;;;;;;;;;;;;;;;4243140;27;19998;-35
2023/03/19 09:30:26;;;;;;;;;;;;;;;;;;4218537;28;19916;-39
2023/03/19 09:32:27;;;;;;;;;;;;;;;;;;4235997;27;19922;-38
2023/03/19 09:34:28;;;;;;;;;;;;;;;;;;4242839;27;19964;-35
2023/03/19 09:36:29;;;;;;;;;;;;;;;;;;4232200;27;19996;-35
2023/03/19 09:38:30;;;;;;;;;;;;;;;;;;4246651;27;19991;-37
2023/03/19 09:40:31;;;;;;;;;;;;;;;;;;4246558;27;19976;-39
2023/03/19 09:42:32;;;;;;;;;;;;;;;;;;4246458;27;19915;-36
2023/03/19 09:44:33;;;;;;;;;;;;;;;;;;4246022;27;19984;-36
2023/03/19 09:46:35;;;;;;;;;;;;;;;;;;4241479;27;19915;-35
2023/03/19 09:48:36;;;;;;;;;;;;;;;;;;4236355;27;19922;-37
2023/03/19 09:50:37;;;;;;;;;;;;;;;;;;4235556;27;19915;-37
2023/03/19 09:52:40;;;;;;;;;;;;;;;;;;4243034;27;20354;-39
2023/03/19 09:54:41;;;;;;;;;;;;;;;;;;4245943;27;19934;-37
2023/03/19 09:56:42;;;;;;;;;;;;;;;;;;4235951;28;19915;-38
2023/03/19 09:58:43;;;;;;;;;;;;;;;;;;4237522;27;19952;-36
2023/03/19 10:00:45;;;;;;;;;;;;;;;;;;4246398;27;20325;-34
2023/03/19 10:02:46;;;;;;;;;;;;;;;;;;4231288;28;20274;-34
2023/03/19 10:04:47;;;;;;;;;;;;;;;;;;4232876;28;19921;-39
2023/03/19 10:06:48;;;;;;;;;;;;;;;;;;4246263;28;19922;-35
2023/03/19 10:08:50;;;;;;;;;;;;;;;;;;4246277;28;20035;-37
2023/03/19 10:10:52;;;;;;;;;;;;;;;;;;4228094;28;20356;-37
2023/03/19 10:12:53;;;;;;;;;;;;;;;;;;4243234;28;19960;-36
2023/03/19 10:14:54;;;;;;;;;;;;;;;;;;4234927;28;20340;-36
2023/03/19 10:16:55;;;;;;;;;;;;;;;;;;4245682;28;19982;-40
2023/03/19 10:18:55;;;;;;;;;;;;;;;;;;4245999;28;20040;-36
2023/03/19 10:20:57;;;;;;;;;;;;;;;;;;4245905;28;20281;-38
2023/03/19 10:22:58;;;;;;;;;;;;;;;;;;4241507;28;20010;-37
2023/03/19 10:24:58;;;;;;;;;;;;;;;;;;4237053;28;19922;-37
2023/03/19 10:27:00;;;;;;;;;;;;;;;;;;4216783;28;19923;-37
2023/03/19 10:29:01;;;;;;;;;;;;;;;;;;4225571;28;19924;-38
2023/03/19 10:31:02;;;;;;;;;;;;;;;;;;4229412;28;20404;-37
2023/03/19 10:33:03;;;;;;;;;;;;;;;;;;4222524;28;19937;-38
2023/03/19 10:35:04;;;;;;;;;;;;;;;;;;4221793;28;19926;-37
2023/03/19 10:37:05;;;;;;;;;;;;;;;;;;4216195;28;20437;-38
2023/03/19 10:39:06;;;;;;;;;;;;;;;;;;4227897;28;19920;-33
2023/03/19 10:41:08;;;;;;;;;;;;;;;;;;4222560;28;19923;-38
2023/03/19 10:43:09;;;;;;;;;;;;;;;;;;4212426;28;19961;-35
2023/03/19 10:45:10;;;;;;;;;;;;;;;;;;4224134;28;19924;-33
2023/03/19 10:47:11;;;;;;;;;;;;;;;;;;4228087;28;20379;-39
2023/03/19 10:49:12;;;;;;;;;;;;;;;;;;4228917;28;19916;-36
2023/03/19 10:51:14;;;;;;;;;;;;;;;;;;4228888;28;19969;-36
2023/03/19 10:53:15;;;;;;;;;;;;;;;;;;4218762;28;19970;-37
2023/03/19 10:55:16;;;;;;;;;;;;;;;;;;4212067;28;19927;-37
2023/03/19 10:57:17;;;;;;;;;;;;;;;;;;4226998;28;19915;-36
2023/03/19 10:59:20;;;;;;;;;;;;;;;;;;4229992;28;19915;-38
2023/03/19 11:01:21;;;;;;;;;;;;;;;;;;4231667;28;19919;-41
2023/03/19 11:03:22;;;;;;;;;;;;;;;;;;4219425;28;19994;-38
2023/03/19 11:05:23;;;;;;;;;;;;;;;;;;4230815;28;19915;-34
2023/03/19 11:07:24;;;;;;;;;;;;;;;;;;4226930;28;20061;-35
2023/03/19 11:09:26;;;;;;;;;;;;;;;;;;4223497;28;20333;-35
2023/03/19 11:11:26;;;;;;;;;;;;;;;;;;4231708;28;19961;-36
2023/03/19 11:13:28;;;;;;;;;;;;;;;;;;4231754;28;19923;-35
2023/03/19 11:15:29;;;;;;;;;;;;;;;;;;4227921;28;19920;-34
2023/03/19 11:17:30;;;;;;;;;;;;;;;;;;4222048;28;19923;-35
2023/03/19 11:19:31;;;;;;;;;;;;;;;;;;4231910;28;19990;-36
2023/03/19 11:21:32;;;;;;;;;;;;;;;;;;4218041;28;19961;-36
2023/03/19 11:23:34;;;;;;;;;;;;;;;;;;4217989;28;19916;-34
2023/03/19 11:25:35;;;;;;;;;;;;;;;;;;4230049;27;19983;-35
2023/03/19 11:27:36;;;;;;;;;;;;;;;;;;4241128;27;19916;-33
2023/03/19 11:29:37;;;;;;;;;;;;;;;;;;4240974;27;19921;-38
2023/03/19 11:31:38;;;;;;;;;;;;;;;;;;4246883;27;19916;-38
2023/03/19 11:33:40;;;;;;;;;;;;;;;;;;4243481;27;19968;-34
2023/03/19 11:35:41;;;;;;;;;;;;;;;;;;4239875;27;20374;-35
2023/03/19 11:37:43;;;;;;;;;;;;;;;;;;4248346;27;20315;-37
2023/03/19 11:39:44;;;;;;;;;;;;;;;;;;4234322;27;19915;-39
2023/03/19 11:41:45;;;;;;;;;;;;;;;;;;4230233;28;19923;-38
2023/03/19 11:43:46;;;;;;;;;;;;;;;;;;4248294;27;19972;-36
2023/03/19 11:45:48;;;;;;;;;;;;;;;;;;4248606;27;19920;-38
2023/03/19 11:47:49;;;;;;;;;;;;;;;;;;4247762;27;20239;-39
2023/03/19 11:49:50;;;;;;;;;;;;;;;;;;4247963;27;19919;-37
2023/03/19 11:51:51;;;;;;;;;;;;;;;;;;4242208;27;19964;-38
2023/03/19 11:53:52;;;;;;;;;;;;;;;;;;4231717;28;19919;-35
2023/03/19 11:55:53;;;;;;;;;;;;;;;;;;4240331;27;19924;-36
2023/03/19 11:57:55;;;;;;;;;;;;;;;;;;4246761;27;19919;-38
2023/03/19 11:59:58;;;;;;;;;;;;;;;;;;4248365;27;19915;-36
2023/03/19 12:01:58;;;;;;;;;;;;;;;;;;4247713;27;19960;-36
2023/03/19 12:04:00;;;;;;;;;;;;;;;;;;4248098;27;20061;-33
2023/03/19 12:06:01;;;;;;;;;;;;;;;;;;4247651;27;19923;-37
2023/03/19 12:08:02;;;;;;;;;;;;;;;;;;4225515;28;19977;-36
2023/03/19 12:10:03;;;;;;;;;;;;;;;;;;4238161;27;19915;-37
2023/03/19 12:12:04;;;;;;;;;;;;;;;;;;4246945;27;20373;-36
2023/03/19 12:14:06;;;;;;;;;;;;;;;;;;4248240;27;19923;-36
2023/03/19 12:16:07;;;;;;;;;;;;;;;;;;4247205;27;19915;-39
2023/03/19 12:18:08;;;;;;;;;;;;;;;;;;4241339;27;19973;-39
2023/03/19 12:20:10;;;;;;;;;;;;;;;;;;4240318;27;20005;-35
2023/03/19 12:22:12;;;;;;;;;;;;;;;;;;4247727;27;19923;-37
2023/03/19 12:24:13;;;;;;;;;;;;;;;;;;4247837;27;19915;-35
2023/03/19 12:26:14;;;;;;;;;;;;;;;;;;4242328;27;20272;-38
2023/03/19 12:28:16;;;;;;;;;;;;;;;;;;4239604;27;19968;-39
2023/03/19 12:30:16;;;;;;;;;;;;;;;;;;4234769;27;19919;-36
2023/03/19 12:32:17;;;;;;;;;;;;;;;;;;4232249;27;19969;-36
2023/03/19 12:34:18;;;;;;;;;;;;;;;;;;4247611;27;20421;-37
2023/03/19 12:36:20;;;;;;;;;;;;;;;;;;4238956;27;20397;-38
2023/03/19 12:38:22;;;;;;;;;;;;;;;;;;4242720;27;19919;-35
2023/03/19 12:40:24;;;;;;;;;;;;;;;;;;4247195;27;20286;-35
2023/03/19 12:42:25;;;;;;;;;;;;;;;;;;4242980;27;19916;-33
2023/03/19 12:44:27;;;;;;;;;;;;;;;;;;4238244;27;19915;-37
2023/03/19 12:46:28;;;;;;;;;;;;;;;;;;4236305;27;19919;-36
2023/03/19 12:48:29;;;;;;;;;;;;;;;;;;4214935;28;19916;-38
2023/03/19 12:50:30;;;;;;;;;;;;;;;;;;4233760;27;20006;-36
2023/03/19 12:52:31;;;;;;;;;;;;;;;;;;4247157;27;19956;-36
2023/03/19 12:54:33;;;;;;;;;;;;;;;;;;4247396;27;19923;-35
2023/03/19 12:56:35;;;;;;;;;;;;;;;;;;4237922;27;19915;-33
2023/03/19 12:58:36;;;;;;;;;;;;;;;;;;4228010;28;20296;-36
2023/03/19 13:00:37;;;;;;;;;;;;;;;;;;4241582;27;19968;-36
2023/03/19 13:02:38;;;;;;;;;;;;;;;;;;4238590;27;19927;-36
2023/03/19 13:04:40;;;;;;;;;;;;;;;;;;4235037;27;20082;-36
2023/03/19 13:06:41;;;;;;;;;;;;;;;;;;4244926;27;19942;-39
2023/03/19 13:08:43;;;;;;;;;;;;;;;;;;4247166;27;19940;-35
2023/03/19 13:10:44;;;;;;;;;;;;;;;;;;4239216;27;20263;-38
2023/03/19 13:12:45;;;;;;;;;;;;;;;;;;4241177;27;19983;-34
2023/03/19 13:14:46;;;;;;;;;;;;;;;;;;4246602;27;19919;-34
2023/03/19 13:16:47;;;;;;;;;;;;;;;;;;4245948;27;19919;-35
2023/03/19 13:18:49;;;;;;;;;;;;;;;;;;4247248;27;19915;-36
2023/03/19 13:20:50;;;;;;;;;;;;;;;;;;4246986;27;19959;-37
2023/03/19 13:22:51;;;;;;;;;;;;;;;;;;4228255;28;19976;-38
2023/03/19 13:24:52;;;;;;;;;;;;;;;;;;4245063;27;19915;-38
2023/03/19 13:26:53;;;;;;;;;;;;;;;;;;4234315;27;19936;-36
2023/03/19 13:28:54;;;;;;;;;;;;;;;;;;4238992;27;19919;-37
2023/03/19 13:30:55;;;;;;;;;;;;;;;;;;4240848;27;19963;-35
2023/03/19 13:32:56;;;;;;;;;;;;;;;;;;4245809;27;19922;-35
2023/03/19 13:34:57;;;;;;;;;;;;;;;;;;4233343;27;19926;-38
2023/03/19 13:36:59;;;;;;;;;;;;;;;;;;4240063;27;19927;-34
2023/03/19 13:39:00;;;;;;;;;;;;;;;;;;4239758;27;19915;-36
2023/03/19 13:41:01;;;;;;;;;;;;;;;;;;4228350;28;20398;-38
2023/03/19 13:43:02;;;;;;;;;;;;;;;;;;4232174;27;19949;-37
2023/03/19 13:45:03;;;;;;;;;;;;;;;;;;4246475;27;19976;-35
2023/03/19 13:47:04;;;;;;;;;;;;;;;;;;4246037;27;19915;-36
2023/03/19 13:49:05;;;;;;;;;;;;;;;;;;4246486;27;20299;-35
2023/03/19 13:51:07;;;;;;;;;;;;;;;;;;4214200;28;20027;-38
2023/03/19 13:53:08;;;;;;;;;;;;;;;;;;4246135;27;19916;-34
2023/03/19 13:55:09;;;;;;;;;;;;;;;;;;4246678;27;19967;-34